Waikoloa, Hawaii
Current Conditions -  °F | °C
As of 8:53 PM on Thursday 30 Oct 2014 (Local Time) from PHKO Reporting Station
Few Clouds Few Clouds  
Wind Chill: 81°   Ceiling: Unl
Heat Index: 84°   Visibility: 10mi
Dew Point: 69°   Wind: 6mph
Humidity: 67%   Direction: 160°SSE
Pressure: 30"   Gusts: NA
Location:  19.83°N, 155.84°W
Report Text: PHKO 310653Z 16005KT 10SM FEW050 27/21 A3000 RMK AO2 SLP158 T02720206
Loading
Personal Weather Stations






























Interactive Weather Map
Tropical Storm Tracking
New forecast layout! Learn more

10-Day Weather Forecast

Advertisements
Track Severe Weather on mobile